Time;durP1;ratioP1;P1;durP2;ratioP2;P2;SDS_P1;SDS_P2;PMS_P1;PMS_P2;Temp;Humidity;BMP_temperature;BMP_pressure;BME280_temperature;BME280_humidity;BME280_pressure;Samples;Min_cycle;Max_cycle;Signal;HPM_P1;HPM_P2
2023/06/05 00:02:12;;;;;;;;;;;16.40;99.90;;;;;;7336150;19;114401;-61
2023/06/05 00:04:40;;;;;;;;;;;16.40;99.90;;;;;;7338608;19;109474;-61
2023/06/05 00:07:07;;;;;;;;;;;16.30;99.90;;;;;;7337878;19;110359;-61
2023/06/05 00:09:35;;;;;;;;;;;16.30;99.90;;;;;;7331678;19;110517;-61
2023/06/05 00:12:02;;;;;;;;;;;16.20;99.90;;;;;;7337932;19;109948;-61
2023/06/05 00:14:29;;;;;;;;;;;16.20;99.90;;;;;;7334834;19;110495;-64
2023/06/05 00:16:57;;;;;;;;;;;16.20;99.90;;;;;;7337428;19;109793;-65
2023/06/05 00:19:24;;;;;;;;;;;16.10;99.90;;;;;;7341735;19;110490;-62
2023/06/05 00:21:52;;;;;;;;;;;16.10;99.90;;;;;;7334030;19;111292;-61
2023/06/05 00:24:19;;;;;;;;;;;16.10;99.90;;;;;;7337793;19;110337;-61
2023/06/05 00:26:47;;;;;;;;;;;16.00;99.90;;;;;;7336884;19;111249;-62
2023/06/05 00:29:14;;;;;;;;;;;16.00;99.90;;;;;;7335359;19;110739;-61
2023/06/05 00:31:45;;;;;;;;;;;15.90;99.90;;;;;;7336492;19;110987;-61
2023/06/05 00:34:13;;;;;;;;;;;15.90;99.90;;;;;;7334985;19;110353;-61
2023/06/05 00:36:40;;;;;;;;;;;15.80;99.90;;;;;;7334648;19;109654;-60
2023/06/05 00:39:08;;;;;;;;;;;15.90;99.90;;;;;;7335333;19;109856;-60
2023/06/05 00:41:37;;;;;;;;;;;15.80;99.90;;;;;;7339457;19;111064;-60
2023/06/05 00:44:04;;;;;;;;;;;15.80;99.90;;;;;;7335023;19;109703;-60
2023/06/05 00:46:31;;;;;;;;;;;15.70;99.90;;;;;;7337023;19;110787;-60
2023/06/05 00:48:59;;;;;;;;;;;15.70;99.90;;;;;;7336499;19;109595;-60
2023/06/05 00:51:26;;;;;;;;;;;15.70;99.90;;;;;;7335049;19;109537;-60
2023/06/05 00:53:54;;;;;;;;;;;15.60;99.90;;;;;;7334970;19;111972;-61
2023/06/05 00:56:22;;;;;;;;;;;15.60;99.90;;;;;;7336133;19;109349;-61
2023/06/05 00:58:49;;;;;;;;;;;15.50;99.90;;;;;;7333830;19;110851;-61
2023/06/05 01:01:16;;;;;;;;;;;15.50;99.90;;;;;;7333970;19;110169;-60
2023/06/05 01:03:44;;;;;;;;;;;15.40;99.90;;;;;;7336506;19;111377;-60
2023/06/05 01:06:12;;;;;;;;;;;15.40;99.90;;;;;;7332705;19;110272;-61
2023/06/05 01:08:39;;;;;;;;;;;15.30;99.90;;;;;;7335161;19;109788;-61
2023/06/05 01:11:13;;;;;;;;;;;15.30;99.90;;;;;;7334859;19;110178;-60
2023/06/05 01:13:44;;;;;;;;;;;15.20;99.90;;;;;;7335771;19;110007;-60
2023/06/05 01:16:12;;;;;;;;;;;15.20;99.90;;;;;;7333927;19;110667;-60
2023/06/05 01:18:45;;;;;;;;;;;15.20;99.90;;;;;;7336533;19;109830;-62
2023/06/05 01:21:15;;;;;;;;;;;15.10;99.90;;;;;;7333588;19;110585;-60
2023/06/05 01:23:44;;;;;;;;;;;15.00;99.90;;;;;;7338109;19;109531;-61
2023/06/05 01:26:16;;;;;;;;;;;15.00;99.90;;;;;;7332571;19;111119;-60
2023/06/05 01:28:46;;;;;;;;;;;15.00;99.90;;;;;;7334007;19;110117;-61
2023/06/05 01:31:16;;;;;;;;;;;15.00;99.90;;;;;;7334668;19;110075;-61
2023/06/05 01:33:49;;;;;;;;;;;14.90;99.90;;;;;;7333727;19;110282;-60
2023/06/05 01:36:16;;;;;;;;;;;14.90;99.90;;;;;;7335804;19;110193;-60
2023/06/05 01:38:45;;;;;;;;;;;14.90;99.90;;;;;;7332664;19;110125;-60
2023/06/05 01:41:12;;;;;;;;;;;14.80;99.90;;;;;;7333190;19;113613;-61
2023/06/05 01:43:40;;;;;;;;;;;14.80;99.90;;;;;;7336104;19;110081;-61
2023/06/05 01:46:07;;;;;;;;;;;14.70;99.90;;;;;;7340207;19;110104;-61
2023/06/05 01:48:35;;;;;;;;;;;14.70;99.90;;;;;;7331735;19;111549;-60
2023/06/05 01:51:02;;;;;;;;;;;14.70;99.90;;;;;;7334955;19;109891;-60
2023/06/05 01:53:33;;;;;;;;;;;14.60;99.90;;;;;;7335566;19;129601;-60
2023/06/05 01:56:00;;;;;;;;;;;14.50;99.90;;;;;;7335666;19;112064;-61
2023/06/05 01:58:27;;;;;;;;;;;14.50;99.90;;;;;;7334592;19;110165;-60
2023/06/05 02:00:57;;;;;;;;;;;14.50;99.90;;;;;;7333980;19;110258;-60
2023/06/05 02:03:24;;;;;;;;;;;14.50;99.90;;;;;;7331653;19;109620;-61
2023/06/05 02:05:52;;;;;;;;;;;14.40;99.90;;;;;;7334082;19;109951;-61
2023/06/05 02:08:22;;;;;;;;;;;14.50;99.90;;;;;;7339007;19;111199;-60
2023/06/05 02:10:50;;;;;;;;;;;14.40;99.90;;;;;;7333298;19;109385;-60
2023/06/05 02:13:18;;;;;;;;;;;14.30;99.90;;;;;;7332909;19;115161;-60
2023/06/05 02:15:46;;;;;;;;;;;14.30;99.90;;;;;;7329822;19;110664;-60
2023/06/05 02:18:15;;;;;;;;;;;14.30;99.90;;;;;;7329671;19;109189;-60
2023/06/05 02:20:42;;;;;;;;;;;14.30;99.90;;;;;;7333980;19;110146;-60
2023/06/05 02:23:09;;;;;;;;;;;14.30;99.90;;;;;;7332479;19;110800;-62
2023/06/05 02:25:36;;;;;;;;;;;14.20;99.90;;;;;;7333911;19;110369;-61
2023/06/05 02:28:04;;;;;;;;;;;14.20;99.90;;;;;;7331753;19;111116;-60
2023/06/05 02:30:32;;;;;;;;;;;14.10;99.90;;;;;;7334003;19;110678;-60
2023/06/05 02:33:00;;;;;;;;;;;14.10;99.90;;;;;;7331175;19;110268;-60
2023/06/05 02:35:29;;;;;;;;;;;14.10;99.90;;;;;;7332805;19;110535;-61
2023/06/05 02:37:57;;;;;;;;;;;14.00;99.90;;;;;;7334084;19;109461;-60
2023/06/05 02:40:24;;;;;;;;;;;14.00;99.90;;;;;;7330590;19;110857;-60
2023/06/05 02:42:52;;;;;;;;;;;13.90;99.90;;;;;;7331397;19;111738;-60
2023/06/05 02:45:19;;;;;;;;;;;14.00;99.90;;;;;;7330529;19;109526;-60
2023/06/05 02:47:47;;;;;;;;;;;14.00;99.90;;;;;;7334230;19;110671;-60
2023/06/05 02:50:14;;;;;;;;;;;13.90;99.90;;;;;;7332954;19;110187;-60
2023/06/05 02:52:42;;;;;;;;;;;13.90;99.90;;;;;;7337810;19;109949;-60
2023/06/05 02:55:09;;;;;;;;;;;13.90;99.90;;;;;;7329818;19;110518;-62
2023/06/05 02:57:41;;;;;;;;;;;13.80;99.90;;;;;;7334006;19;109998;-69
2023/06/05 03:00:09;;;;;;;;;;;13.80;99.90;;;;;;7331279;19;110014;-64
2023/06/05 03:02:36;;;;;;;;;;;13.70;99.90;;;;;;7330843;19;109819;-66
2023/06/05 03:05:04;;;;;;;;;;;13.70;99.90;;;;;;7332068;19;110646;-60
2023/06/05 03:07:33;;;;;;;;;;;13.70;99.90;;;;;;7328999;19;110953;-60
2023/06/05 03:10:01;;;;;;;;;;;13.60;99.90;;;;;;7330713;19;109576;-60
2023/06/05 03:12:28;;;;;;;;;;;13.60;99.90;;;;;;7331586;19;110396;-61
2023/06/05 03:14:55;;;;;;;;;;;13.60;99.90;;;;;;7337560;19;111381;-60
2023/06/05 03:17:23;;;;;;;;;;;13.60;99.90;;;;;;7339285;19;109843;-60
2023/06/05 03:19:50;;;;;;;;;;;13.60;99.90;;;;;;7337561;19;111863;-60
2023/06/05 03:22:18;;;;;;;;;;;13.50;99.90;;;;;;7339529;19;110006;-60
2023/06/05 03:24:45;;;;;;;;;;;13.50;99.90;;;;;;7338606;19;109858;-60
2023/06/05 03:27:12;;;;;;;;;;;13.60;99.90;;;;;;7337455;19;111119;-60
2023/06/05 03:29:39;;;;;;;;;;;13.60;99.90;;;;;;7335794;19;109522;-60
2023/06/05 03:32:06;;;;;;;;;;;13.60;99.90;;;;;;7339526;19;111438;-60
2023/06/05 03:34:36;;;;;;;;;;;13.50;99.90;;;;;;7344648;19;110680;-60
2023/06/05 03:37:03;;;;;;;;;;;13.40;99.90;;;;;;7337336;19;110797;-60
2023/06/05 03:39:31;;;;;;;;;;;13.40;99.90;;;;;;7336681;19;110065;-60
2023/06/05 03:41:58;;;;;;;;;;;13.40;99.90;;;;;;7335281;19;109966;-60
2023/06/05 03:44:25;;;;;;;;;;;13.40;99.90;;;;;;7337809;19;110473;-60
2023/06/05 03:46:52;;;;;;;;;;;13.30;99.90;;;;;;7337681;19;110693;-60
2023/06/05 03:49:20;;;;;;;;;;;13.30;99.90;;;;;;7337293;19;110521;-60
2023/06/05 03:51:48;;;;;;;;;;;13.30;99.90;;;;;;7339007;19;113805;-60
2023/06/05 03:54:16;;;;;;;;;;;13.30;99.90;;;;;;7336516;19;110300;-61
2023/06/05 03:56:49;;;;;;;;;;;13.30;99.90;;;;;;7344739;19;111556;-60
2023/06/05 03:59:19;;;;;;;;;;;13.30;99.90;;;;;;7335545;19;110055;-60
2023/06/05 04:01:46;;;;;;;;;;;13.20;99.90;;;;;;7339030;19;109375;-60
2023/06/05 04:04:14;;;;;;;;;;;13.30;99.90;;;;;;7338970;19;110527;-60
2023/06/05 04:06:41;;;;;;;;;;;13.30;99.90;;;;;;7335178;19;110105;-60
2023/06/05 04:09:11;;;;;;;;;;;13.30;99.90;;;;;;7337589;19;110152;-60
2023/06/05 04:11:42;;;;;;;;;;;13.30;99.90;;;;;;7338166;19;110365;-60
2023/06/05 04:14:10;;;;;;;;;;;13.20;99.90;;;;;;7336385;19;110265;-60
2023/06/05 04:16:38;;;;;;;;;;;13.20;99.90;;;;;;7338599;19;110595;-60
2023/06/05 04:19:06;;;;;;;;;;;13.20;99.90;;;;;;7342939;19;110753;-60
2023/06/05 04:21:36;;;;;;;;;;;13.10;99.90;;;;;;7337036;19;110176;-60
2023/06/05 04:24:06;;;;;;;;;;;13.10;99.90;;;;;;7337491;19;109728;-60
2023/06/05 04:26:34;;;;;;;;;;;13.10;99.90;;;;;;7339426;19;110066;-61
2023/06/05 04:29:02;;;;;;;;;;;13.10;99.90;;;;;;7337700;19;110321;-61
2023/06/05 04:31:30;;;;;;;;;;;13.10;99.90;;;;;;7336467;19;110562;-60
2023/06/05 04:33:57;;;;;;;;;;;13.10;99.90;;;;;;7336772;19;113408;-60
2023/06/05 04:36:25;;;;;;;;;;;13.10;99.90;;;;;;7334009;19;111282;-60
2023/06/05 04:38:52;;;;;;;;;;;13.10;99.90;;;;;;7337705;19;110043;-60
2023/06/05 04:41:21;;;;;;;;;;;13.10;99.90;;;;;;7340152;19;110549;-60
2023/06/05 04:43:48;;;;;;;;;;;13.10;99.90;;;;;;7335467;19;110327;-61
2023/06/05 04:46:15;;;;;;;;;;;13.20;99.90;;;;;;7335754;19;110237;-61
2023/06/05 04:48:45;;;;;;;;;;;13.20;99.90;;;;;;7335506;19;109277;-61
2023/06/05 04:51:12;;;;;;;;;;;13.30;99.90;;;;;;7333190;19;109706;-61
2023/06/05 04:53:41;;;;;;;;;;;13.40;99.90;;;;;;7333228;19;110153;-61
2023/06/05 04:56:09;;;;;;;;;;;13.40;99.90;;;;;;7334839;19;109798;-60
2023/06/05 04:58:37;;;;;;;;;;;13.40;99.90;;;;;;7335929;19;110073;-60
2023/06/05 05:01:04;;;;;;;;;;;13.40;99.90;;;;;;7335694;19;110077;-60
2023/06/05 05:03:32;;;;;;;;;;;13.40;99.90;;;;;;7342064;19;109605;-61
2023/06/05 05:06:00;;;;;;;;;;;13.30;99.90;;;;;;7337007;19;110689;-60
2023/06/05 05:08:27;;;;;;;;;;;13.30;99.90;;;;;;7333337;19;109576;-61
2023/06/05 05:10:54;;;;;;;;;;;13.30;99.90;;;;;;7336041;19;110073;-61
2023/06/05 05:13:22;;;;;;;;;;;13.40;99.90;;;;;;7335090;19;110142;-60
2023/06/05 05:15:52;;;;;;;;;;;13.40;99.90;;;;;;7334341;19;110135;-61
2023/06/05 05:18:20;;;;;;;;;;;13.40;99.90;;;;;;7335061;19;109741;-60
2023/06/05 05:20:47;;;;;;;;;;;13.40;99.90;;;;;;7335592;19;111307;-61
2023/06/05 05:23:14;;;;;;;;;;;13.40;99.90;;;;;;7333982;19;110249;-65
2023/06/05 05:25:44;;;;;;;;;;;13.50;99.90;;;;;;7341800;19;109998;-61
2023/06/05 05:28:12;;;;;;;;;;;13.60;99.90;;;;;;7334491;19;109429;-61
2023/06/05 05:30:39;;;;;;;;;;;13.70;99.90;;;;;;7335151;19;112179;-61
2023/06/05 05:33:06;;;;;;;;;;;13.70;99.90;;;;;;7333261;19;110462;-61
2023/06/05 05:35:33;;;;;;;;;;;13.70;99.90;;;;;;7336393;19;109232;-61
2023/06/05 05:38:00;;;;;;;;;;;13.70;99.90;;;;;;7333542;19;110110;-61
2023/06/05 05:40:28;;;;;;;;;;;13.80;99.90;;;;;;7333574;19;110774;-61
2023/06/05 05:42:54;;;;;;;;;;;13.90;99.90;;;;;;7336310;19;110033;-61
2023/06/05 05:45:22;;;;;;;;;;;14.00;99.90;;;;;;7337754;19;110061;-61
2023/06/05 05:47:49;;;;;;;;;;;14.10;99.90;;;;;;7333886;19;109452;-63
2023/06/05 05:50:16;;;;;;;;;;;14.20;99.90;;;;;;7335615;19;109439;-61
2023/06/05 05:52:44;;;;;;;;;;;14.30;99.90;;;;;;7332288;19;110205;-62
2023/06/05 05:55:11;;;;;;;;;;;14.30;99.90;;;;;;7335207;19;109236;-61
2023/06/05 05:57:40;;;;;;;;;;;14.40;99.90;;;;;;7335232;19;110433;-61
2023/06/05 06:00:12;;;;;;;;;;;14.50;99.90;;;;;;7333635;19;110676;-64
2023/06/05 06:02:39;;;;;;;;;;;14.50;99.90;;;;;;7333523;19;109594;-61
2023/06/05 06:05:07;;;;;;;;;;;14.60;99.90;;;;;;7334490;19;109657;-61
2023/06/05 06:07:36;;;;;;;;;;;14.60;99.90;;;;;;7336893;19;110182;-61
2023/06/05 06:10:03;;;;;;;;;;;14.70;99.90;;;;;;7336511;19;109486;-61
2023/06/05 06:12:30;;;;;;;;;;;14.80;99.90;;;;;;7333672;19;110431;-61
2023/06/05 06:14:57;;;;;;;;;;;14.90;99.90;;;;;;7334386;19;109918;-62
2023/06/05 06:17:24;;;;;;;;;;;14.90;99.90;;;;;;7335884;19;110180;-61
2023/06/05 06:19:52;;;;;;;;;;;15.00;99.90;;;;;;7331034;19;110427;-61
2023/06/05 06:22:20;;;;;;;;;;;15.00;99.90;;;;;;7333885;19;109547;-67
2023/06/05 06:24:47;;;;;;;;;;;15.00;99.90;;;;;;7332618;19;109462;-64
2023/06/05 06:27:17;;;;;;;;;;;14.90;99.90;;;;;;7333371;19;110502;-64
2023/06/05 06:30:01;;;;;;;;;;;15.10;99.90;;;;;;7338996;19;109588;-64
2023/06/05 06:32:28;;;;;;;;;;;15.20;99.90;;;;;;7330070;19;111014;-62
2023/06/05 06:34:55;;;;;;;;;;;15.20;99.90;;;;;;7334537;19;109682;-65
2023/06/05 06:37:23;;;;;;;;;;;15.30;99.90;;;;;;7334520;19;114797;-62
2023/06/05 06:39:50;;;;;;;;;;;15.40;99.90;;;;;;7333399;19;110790;-62
2023/06/05 06:42:17;;;;;;;;;;;15.40;99.90;;;;;;7332826;19;109819;-62
2023/06/05 06:44:44;;;;;;;;;;;15.50;99.90;;;;;;7332063;19;111071;-62
2023/06/05 06:47:11;;;;;;;;;;;15.50;99.90;;;;;;7331137;19;113276;-62
2023/06/05 06:49:39;;;;;;;;;;;15.50;99.90;;;;;;7333659;19;110917;-63
2023/06/05 06:52:06;;;;;;;;;;;15.60;99.90;;;;;;7350022;19;110214;-62
2023/06/05 06:54:34;;;;;;;;;;;15.70;99.90;;;;;;7344123;19;109969;-61
2023/06/05 06:57:01;;;;;;;;;;;15.80;99.90;;;;;;7344637;19;110232;-62
2023/06/05 06:59:28;;;;;;;;;;;15.80;99.90;;;;;;7341694;19;110086;-61
2023/06/05 07:02:33;;;;;;;;;;;15.90;99.90;;;;;;7345667;19;111027;-61
2023/06/05 07:05:00;;;;;;;;;;;15.90;99.90;;;;;;7339624;19;110188;-62
2023/06/05 07:07:29;;;;;;;;;;;16.10;99.90;;;;;;7340405;19;114143;-62
2023/06/05 07:09:57;;;;;;;;;;;16.10;99.90;;;;;;7338518;19;111794;-62
2023/06/05 07:12:25;;;;;;;;;;;16.20;99.90;;;;;;7343923;19;110421;-62
2023/06/05 07:14:52;;;;;;;;;;;16.20;99.90;;;;;;7349848;19;110111;-62
2023/06/05 07:17:19;;;;;;;;;;;16.20;99.90;;;;;;7343874;19;111546;-62
2023/06/05 07:19:46;;;;;;;;;;;16.40;99.90;;;;;;7341243;19;111243;-62
2023/06/05 07:22:13;;;;;;;;;;;16.50;99.90;;;;;;7345381;19;110256;-62
2023/06/05 07:24:40;;;;;;;;;;;16.50;99.90;;;;;;7342468;19;110233;-75
2023/06/05 07:27:08;;;;;;;;;;;16.60;99.90;;;;;;7341934;19;112057;-75
2023/06/05 07:29:35;;;;;;;;;;;16.80;99.90;;;;;;7344632;19;109899;-74
2023/06/05 07:32:06;;;;;;;;;;;16.80;99.90;;;;;;7342696;19;110481;-74
2023/06/05 07:34:34;;;;;;;;;;;16.90;99.90;;;;;;7343423;19;109929;-74
2023/06/05 07:37:02;;;;;;;;;;;17.20;99.90;;;;;;7348705;19;109559;-74
2023/06/05 07:39:29;;;;;;;;;;;17.20;99.90;;;;;;7346292;19;113373;-74
2023/06/05 07:41:56;;;;;;;;;;;17.20;99.90;;;;;;7345934;19;109795;-75
2023/06/05 07:44:23;;;;;;;;;;;17.30;99.90;;;;;;7344958;19;111342;-74
2023/06/05 07:46:51;;;;;;;;;;;17.40;99.90;;;;;;7346483;19;110417;-74
2023/06/05 07:49:18;;;;;;;;;;;17.30;99.90;;;;;;7346698;19;109955;-75
2023/06/05 07:51:47;;;;;;;;;;;17.30;99.90;;;;;;7347031;19;110410;-74
2023/06/05 07:54:15;;;;;;;;;;;17.40;99.90;;;;;;7344453;19;110658;-75
2023/06/05 07:56:43;;;;;;;;;;;17.60;99.90;;;;;;7350746;19;115408;-75
2023/06/05 07:59:14;;;;;;;;;;;17.80;99.90;;;;;;7345288;19;111470;-74
2023/06/05 08:01:42;;;;;;;;;;;17.90;99.90;;;;;;7340978;19;109834;-74
2023/06/05 08:04:12;;;;;;;;;;;18.00;99.90;;;;;;7338206;19;109537;-74
2023/06/05 08:06:40;;;;;;;;;;;18.20;99.90;;;;;;7338536;19;110130;-74
2023/06/05 08:09:10;;;;;;;;;;;18.30;99.90;;;;;;7336724;19;109726;-74
2023/06/05 08:11:37;;;;;;;;;;;18.40;99.90;;;;;;7336147;19;111487;-74
2023/06/05 08:14:06;;;;;;;;;;;18.40;99.90;;;;;;7336942;19;111270;-74
2023/06/05 08:16:33;;;;;;;;;;;18.40;99.90;;;;;;7336374;19;110137;-75
2023/06/05 08:19:01;;;;;;;;;;;18.50;99.90;;;;;;7341967;19;109684;-74
2023/06/05 08:21:28;;;;;;;;;;;18.50;99.90;;;;;;7334385;19;109622;-75
2023/06/05 08:23:56;;;;;;;;;;;18.40;99.90;;;;;;7334413;19;112794;-74
2023/06/05 08:26:23;;;;;;;;;;;18.40;99.90;;;;;;7335865;19;110976;-75
2023/06/05 08:28:50;;;;;;;;;;;18.50;99.90;;;;;;7336927;19;110186;-74
2023/06/05 08:31:18;;;;;;;;;;;18.60;99.90;;;;;;7332714;19;111890;-74
2023/06/05 08:33:45;;;;;;;;;;;18.80;99.90;;;;;;7336022;19;110491;-74
2023/06/05 08:36:12;;;;;;;;;;;18.90;99.90;;;;;;7335829;19;110737;-73
2023/06/05 08:38:39;;;;;;;;;;;19.10;99.90;;;;;;7338830;19;110053;-74
2023/06/05 08:41:10;;;;;;;;;;;19.20;99.90;;;;;;7341729;19;110992;-75
2023/06/05 08:43:38;;;;;;;;;;;19.20;99.90;;;;;;7337654;19;110030;-74
2023/06/05 08:46:06;;;;;;;;;;;19.40;99.90;;;;;;7339138;19;113094;-74
2023/06/05 08:48:37;;;;;;;;;;;19.40;99.90;;;;;;7337654;19;110042;-75
2023/06/05 08:51:06;;;;;;;;;;;19.50;99.90;;;;;;7337035;19;109698;-75
2023/06/05 08:53:34;;;;;;;;;;;19.50;99.90;;;;;;7337433;19;111568;-74
2023/06/05 08:56:01;;;;;;;;;;;19.40;99.90;;;;;;7336841;19;111286;-75
2023/06/05 08:58:29;;;;;;;;;;;19.50;99.90;;;;;;7362997;19;110207;-84
2023/06/05 09:00:57;;;;;;;;;;;19.70;99.90;;;;;;7372408;19;113290;-84
2023/06/05 09:03:24;;;;;;;;;;;19.80;99.90;;;;;;7380392;19;109161;-84
2023/06/05 09:05:52;;;;;;;;;;;19.90;99.90;;;;;;7372283;19;112833;-84
2023/06/05 09:08:30;;;;;;;;;;;19.90;99.90;;;;;;7373971;19;108767;-84
2023/06/05 09:11:16;;;;;;;;;;;19.80;99.90;;;;;;7377298;19;109066;-84
2023/06/05 09:13:47;;;;;;;;;;;19.90;99.90;;;;;;7368773;19;110666;-85
2023/06/05 09:16:14;;;;;;;;;;;19.90;99.90;;;;;;7371159;19;109063;-84
2023/06/05 09:18:55;;;;;;;;;;;20.10;99.90;;;;;;7371189;19;109554;-84
2023/06/05 09:21:28;;;;;;;;;;;20.10;99.90;;;;;;7370890;19;110746;-84
2023/06/05 09:24:07;;;;;;;;;;;20.20;99.90;;;;;;7344100;19;109656;-84
2023/06/05 09:27:00;;;;;;;;;;;20.40;99.90;;;;;;7350056;19;110151;-84
2023/06/05 09:29:29;;;;;;;;;;;20.40;99.90;;;;;;7340699;19;111923;-84
2023/06/05 09:32:01;;;;;;;;;;;20.60;99.90;;;;;;7337062;19;109763;-85
2023/06/05 09:34:29;;;;;;;;;;;20.60;99.80;;;;;;7335330;19;112708;-84
2023/06/05 09:36:57;;;;;;;;;;;20.50;99.90;;;;;;7336914;19;110215;-84
2023/06/05 09:39:26;;;;;;;;;;;20.60;99.70;;;;;;7337013;19;110172;-85
2023/06/05 09:41:56;;;;;;;;;;;20.70;99.90;;;;;;7335690;19;110923;-85
2023/06/05 09:44:24;;;;;;;;;;;20.90;99.80;;;;;;7333084;19;110016;-84
2023/06/05 09:47:00;;;;;;;;;;;21.10;99.90;;;;;;7338385;19;112910;-86
2023/06/05 09:49:29;;;;;;;;;;;21.20;99.90;;;;;;7334750;19;111983;-85
2023/06/05 09:51:57;;;;;;;;;;;21.40;99.60;;;;;;7334339;19;112965;-85
2023/06/05 09:54:28;;;;;;;;;;;21.30;99.10;;;;;;7333868;19;109566;-85
2023/06/05 09:56:57;;;;;;;;;;;21.20;99.50;;;;;;7333487;19;110448;-85
2023/06/05 09:59:28;;;;;;;;;;;21.30;99.30;;;;;;7332459;19;113657;-85
2023/06/05 10:01:56;;;;;;;;;;;21.50;99.60;;;;;;7334135;19;110448;-84
2023/06/05 10:04:25;;;;;;;;;;;21.70;99.10;;;;;;7333878;19;109962;-84
2023/06/05 10:06:54;;;;;;;;;;;21.70;99.10;;;;;;7336115;19;110883;-84
2023/06/05 10:09:22;;;;;;;;;;;21.60;98.60;;;;;;7340709;19;111349;-84
2023/06/05 10:11:50;;;;;;;;;;;21.70;98.80;;;;;;7332901;19;112241;-85
2023/06/05 10:14:20;;;;;;;;;;;21.80;98.50;;;;;;7331975;19;111663;-84
2023/06/05 10:16:51;;;;;;;;;;;21.90;98.50;;;;;;7331998;19;110121;-84
2023/06/05 10:19:19;;;;;;;;;;;21.90;97.90;;;;;;7334009;19;110434;-85
2023/06/05 10:21:48;;;;;;;;;;;21.90;98.10;;;;;;7331789;19;111556;-82
2023/06/05 10:24:18;;;;;;;;;;;21.90;97.80;;;;;;7333049;19;110685;-82
2023/06/05 10:27:12;;;;;;;;;;;22.00;98.40;;;;;;7337120;19;110021;-82
2023/06/05 10:29:42;;;;;;;;;;;22.10;97.80;;;;;;7331619;19;114834;-82
2023/06/05 10:32:20;;;;;;;;;;;22.30;97.80;;;;;;7339744;19;109817;-82
2023/06/05 10:35:06;;;;;;;;;;;22.40;98.70;;;;;;7331618;19;111201;-82
2023/06/05 10:37:33;;;;;;;;;;;22.60;97.90;;;;;;7336617;19;110167;-83
2023/06/05 10:40:00;;;;;;;;;;;22.80;97.60;;;;;;7332318;19;110777;-72
2023/06/05 10:42:28;;;;;;;;;;;22.90;96.70;;;;;;7332332;19;111448;-70
2023/06/05 10:44:56;;;;;;;;;;;23.00;97.00;;;;;;7330455;19;109401;-72
2023/06/05 10:47:32;;;;;;;;;;;23.00;96.10;;;;;;7332253;19;109497;-70
2023/06/05 10:50:15;;;;;;;;;;;23.10;95.90;;;;;;7331568;19;110711;-70
2023/06/05 10:52:44;;;;;;;;;;;23.10;95.80;;;;;;7333641;19;110365;-72
2023/06/05 10:55:12;;;;;;;;;;;22.90;94.30;;;;;;7334952;19;109901;-72
2023/06/05 10:57:58;;;;;;;;;;;22.80;94.50;;;;;;7333186;19;109905;-73
2023/06/05 11:00:25;;;;;;;;;;;23.00;96.00;;;;;;7329847;19;112581;-72
2023/06/05 11:02:53;;;;;;;;;;;23.20;94.70;;;;;;7332660;19;110175;-72
2023/06/05 11:05:20;;;;;;;;;;;23.20;94.70;;;;;;7331195;19;111405;-72
2023/06/05 11:07:48;;;;;;;;;;;23.30;95.80;;;;;;7333898;19;110546;-72
2023/06/05 11:10:25;;;;;;;;;;;23.50;95.30;;;;;;7330793;19;111045;-72
2023/06/05 11:12:52;;;;;;;;;;;23.50;94.60;;;;;;7335575;19;109120;-72
2023/06/05 11:15:22;;;;;;;;;;;23.60;94.50;;;;;;7331763;19;110126;-72
2023/06/05 11:17:50;;;;;;;;;;;23.50;94.50;;;;;;7337954;19;110168;-72
2023/06/05 11:20:23;;;;;;;;;;;23.50;94.60;;;;;;7334750;19;110074;-72
2023/06/05 11:22:52;;;;;;;;;;;23.70;93.90;;;;;;7331074;19;110648;-72
2023/06/05 11:25:32;;;;;;;;;;;23.70;94.20;;;;;;7333525;19;110358;-72
2023/06/05 11:28:02;;;;;;;;;;;23.70;94.00;;;;;;7331049;19;110304;-72
2023/06/05 11:30:34;;;;;;;;;;;23.80;94.00;;;;;;7331479;19;111069;-72
2023/06/05 11:33:14;;;;;;;;;;;23.70;93.00;;;;;;7330335;19;111784;-72
2023/06/05 11:35:46;;;;;;;;;;;23.70;93.20;;;;;;7335988;19;109995;-72
2023/06/05 11:38:17;;;;;;;;;;;23.80;92.60;;;;;;7338824;19;111749;-72
2023/06/05 11:40:49;;;;;;;;;;;23.90;93.40;;;;;;7343995;19;110679;-72
2023/06/05 11:43:16;;;;;;;;;;;24.10;93.30;;;;;;7339192;19;110138;-72
2023/06/05 11:45:56;;;;;;;;;;;24.10;92.80;;;;;;7337104;19;109943;-72
2023/06/05 11:48:27;;;;;;;;;;;24.30;93.30;;;;;;7334671;19;110187;-72
2023/06/05 11:50:58;;;;;;;;;;;24.50;92.10;;;;;;7334826;19;112849;-72
2023/06/05 11:53:26;;;;;;;;;;;24.50;91.30;;;;;;7337763;19;109674;-72
2023/06/05 11:55:54;;;;;;;;;;;24.40;91.70;;;;;;7338109;19;110081;-72
2023/06/05 11:58:25;;;;;;;;;;;24.50;92.10;;;;;;7338948;19;111873;-72
2023/06/05 12:01:03;;;;;;;;;;;24.60;92.80;;;;;;7343698;19;109742;-72
2023/06/05 12:03:30;;;;;;;;;;;24.90;91.80;;;;;;7338059;19;111087;-72
2023/06/05 12:05:57;;;;;;;;;;;25.00;92.30;;;;;;7334700;19;110163;-73
2023/06/05 12:08:25;;;;;;;;;;;25.10;92.20;;;;;;7338789;19;110698;-72
2023/06/05 12:10:52;;;;;;;;;;;25.30;90.40;;;;;;7339212;19;110521;-72
2023/06/05 12:13:19;;;;;;;;;;;25.10;89.10;;;;;;7336808;19;111367;-72
2023/06/05 12:16:00;;;;;;;;;;;25.00;90.00;;;;;;7337863;19;110120;-72
2023/06/05 12:18:34;;;;;;;;;;;25.20;89.80;;;;;;7336870;19;110613;-72
2023/06/05 12:21:01;;;;;;;;;;;25.20;88.20;;;;;;7335165;19;110336;-71
2023/06/05 12:23:30;;;;;;;;;;;25.40;89.60;;;;;;7341062;19;112356;-72
2023/06/05 12:25:58;;;;;;;;;;;25.40;89.90;;;;;;7338254;19;109703;-72
2023/06/05 12:28:27;;;;;;;;;;;25.50;87.90;;;;;;7333844;19;109377;-72
2023/06/05 12:30:54;;;;;;;;;;;25.50;86.40;;;;;;7334552;19;111169;-72
2023/06/05 12:33:25;;;;;;;;;;;25.50;88.90;;;;;;7336458;19;109752;-72
2023/06/05 12:36:07;;;;;;;;;;;25.80;89.00;;;;;;7336674;19;110108;-71
2023/06/05 12:38:38;;;;;;;;;;;26.00;87.50;;;;;;7338298;19;111519;-72
2023/06/05 12:41:09;;;;;;;;;;;26.10;88.90;;;;;;7334015;19;109486;-72
2023/06/05 12:43:36;;;;;;;;;;;26.10;85.50;;;;;;7335745;19;110107;-72
2023/06/05 12:46:05;;;;;;;;;;;26.10;83.60;;;;;;7341402;19;110111;-72
2023/06/05 12:48:32;;;;;;;;;;;26.10;85.90;;;;;;7333553;19;109214;-72
2023/06/05 12:51:00;;;;;;;;;;;26.10;81.60;;;;;;7336256;19;110606;-72
2023/06/05 12:53:27;;;;;;;;;;;26.20;85.90;;;;;;7338699;19;109509;-72
2023/06/05 12:55:55;;;;;;;;;;;26.40;84.80;;;;;;7332634;19;110704;-73
2023/06/05 12:58:22;;;;;;;;;;;26.50;85.00;;;;;;7337034;19;111080;-72
2023/06/05 13:00:50;;;;;;;;;;;26.40;84.30;;;;;;7330909;19;109694;-72
2023/06/05 13:03:17;;;;;;;;;;;26.50;82.80;;;;;;7336247;19;110328;-72
2023/06/05 13:05:44;;;;;;;;;;;26.60;81.90;;;;;;7333452;19;111306;-72
2023/06/05 13:08:12;;;;;;;;;;;26.80;82.00;;;;;;7340088;19;109560;-71
2023/06/05 13:10:40;;;;;;;;;;;27.00;82.00;;;;;;7336034;19;110014;-72
2023/06/05 13:13:07;;;;;;;;;;;27.10;80.70;;;;;;7335034;19;109740;-71
2023/06/05 13:15:34;;;;;;;;;;;27.00;79.00;;;;;;7336387;19;110076;-72
2023/06/05 13:18:04;;;;;;;;;;;26.70;78.80;;;;;;7335041;19;111098;-72
2023/06/05 13:20:33;;;;;;;;;;;26.80;82.30;;;;;;7335237;19;109791;-72
2023/06/05 13:23:01;;;;;;;;;;;27.10;81.40;;;;;;7335305;19;110510;-72
2023/06/05 13:25:28;;;;;;;;;;;27.20;77.40;;;;;;7334639;19;110211;-72
2023/06/05 13:27:55;;;;;;;;;;;27.20;78.20;;;;;;7334465;19;110015;-72
2023/06/05 13:30:22;;;;;;;;;;;27.30;75.70;;;;;;7343861;19;109653;-72
2023/06/05 13:32:54;;;;;;;;;;;27.40;74.30;;;;;;7333549;19;110812;-71
2023/06/05 13:35:21;;;;;;;;;;;27.20;76.00;;;;;;7334838;19;110325;-72
2023/06/05 13:37:51;;;;;;;;;;;27.30;75.10;;;;;;7336029;19;110132;-72
2023/06/05 13:40:19;;;;;;;;;;;27.40;76.40;;;;;;7333303;19;109653;-72
2023/06/05 13:42:46;;;;;;;;;;;27.40;76.80;;;;;;7335518;19;110927;-71
2023/06/05 13:45:13;;;;;;;;;;;27.50;74.80;;;;;;7333329;19;109992;-71
2023/06/05 13:47:40;;;;;;;;;;;27.60;76.70;;;;;;7334177;19;109492;-71
2023/06/05 13:50:08;;;;;;;;;;;27.80;78.60;;;;;;7334800;19;109650;-71
2023/06/05 13:52:35;;;;;;;;;;;27.90;74.80;;;;;;7341367;19;110226;-69
2023/06/05 13:55:03;;;;;;;;;;;27.70;72.50;;;;;;7332630;19;109625;-69
2023/06/05 13:57:33;;;;;;;;;;;27.80;75.50;;;;;;7334448;19;109691;-70
2023/06/05 14:00:00;;;;;;;;;;;27.80;75.10;;;;;;7331138;19;109344;-72
2023/06/05 14:02:27;;;;;;;;;;;27.90;74.00;;;;;;7330211;19;109794;-72
2023/06/05 14:04:55;;;;;;;;;;;28.00;74.20;;;;;;7334691;19;110272;-71
2023/06/05 14:07:22;;;;;;;;;;;28.00;76.60;;;;;;7331939;19;109697;-70
2023/06/05 14:09:50;;;;;;;;;;;28.10;72.30;;;;;;7335142;19;109498;-70
2023/06/05 14:12:17;;;;;;;;;;;27.90;74.90;;;;;;7340922;19;110470;-70
2023/06/05 14:14:44;;;;;;;;;;;28.00;75.80;;;;;;7334124;19;110444;-71